sensor_id;sensor_type;location;lat;lon;timestamp;temperature;humidity
20496;DHT22;10406;54.132;17.968;2022-09-01T00:02:39;10.60;99.90
20496;DHT22;10406;54.132;17.968;2022-09-01T00:08:02;10.70;99.90
20496;DHT22;10406;54.132;17.968;2022-09-01T00:13:45;10.60;99.90
20496;DHT22;10406;54.132;17.968;2022-09-01T00:19:08;10.50;99.90
20496;DHT22;10406;54.132;17.968;2022-09-01T00:24:46;10.50;99.90
20496;DHT22;10406;54.132;17.968;2022-09-01T00:30:08;10.30;99.90
20496;DHT22;10406;54.132;17.968;2022-09-01T00:35:52;10.40;99.90
20496;DHT22;10406;54.132;17.968;2022-09-01T00:41:13;10.40;99.90
20496;DHT22;10406;54.132;17.968;2022-09-01T00:46:53;10.50;99.90
20496;DHT22;10406;54.132;17.968;2022-09-01T00:52:38;10.40;99.90
20496;DHT22;10406;54.132;17.968;2022-09-01T00:58:06;10.30;99.90
20496;DHT22;10406;54.132;17.968;2022-09-01T01:03:35;10.20;99.90
20496;DHT22;10406;54.132;17.968;2022-09-01T01:09:00;10.20;99.90
20496;DHT22;10406;54.132;17.968;2022-09-01T01:14:21;10.10;99.90
20496;DHT22;10406;54.132;17.968;2022-09-01T01:19:45;10.10;99.90
20496;DHT22;10406;54.132;17.968;2022-09-01T01:25:46;10.00;99.90
20496;DHT22;10406;54.132;17.968;2022-09-01T01:31:10;10.00;99.90
20496;DHT22;10406;54.132;17.968;2022-09-01T01:36:38;10.00;99.90
20496;DHT22;10406;54.132;17.968;2022-09-01T01:42:01;10.10;99.90
20496;DHT22;10406;54.132;17.968;2022-09-01T01:47:43;10.10;99.90
20496;DHT22;10406;54.132;17.968;2022-09-01T01:53:11;10.00;99.90
20496;DHT22;10406;54.132;17.968;2022-09-01T01:58:37;10.10;99.90
20496;DHT22;10406;54.132;17.968;2022-09-01T02:04:00;10.20;99.90
20496;DHT22;10406;54.132;17.968;2022-09-01T02:09:22;10.40;99.90
20496;DHT22;10406;54.132;17.968;2022-09-01T02:14:44;10.50;99.90
20496;DHT22;10406;54.132;17.968;2022-09-01T02:20:08;10.70;99.90
20496;DHT22;10406;54.132;17.968;2022-09-01T02:25:47;10.90;99.90
20496;DHT22;10406;54.132;17.968;2022-09-01T02:31:11;10.80;99.90
20496;DHT22;10406;54.132;17.968;2022-09-01T02:36:40;10.70;99.90
20496;DHT22;10406;54.132;17.968;2022-09-01T02:42:10;10.60;99.90
20496;DHT22;10406;54.132;17.968;2022-09-01T02:47:44;10.50;99.90
20496;DHT22;10406;54.132;17.968;2022-09-01T02:53:08;10.50;99.90
20496;DHT22;10406;54.132;17.968;2022-09-01T02:58:50;10.50;99.90
20496;DHT22;10406;54.132;17.968;2022-09-01T03:04:13;10.60;99.90
20496;DHT22;10406;54.132;17.968;2022-09-01T03:09:41;10.80;99.90
20496;DHT22;10406;54.132;17.968;2022-09-01T03:15:03;10.90;99.90
20496;DHT22;10406;54.132;17.968;2022-09-01T03:20:43;11.00;99.90
20496;DHT22;10406;54.132;17.968;2022-09-01T03:26:04;11.10;99.90
20496;DHT22;10406;54.132;17.968;2022-09-01T03:31:25;11.20;99.90
20496;DHT22;10406;54.132;17.968;2022-09-01T03:36:48;11.20;99.90
20496;DHT22;10406;54.132;17.968;2022-09-01T03:42:09;11.30;99.90
20496;DHT22;10406;54.132;17.968;2022-09-01T03:47:55;11.50;99.90
20496;DHT22;10406;54.132;17.968;2022-09-01T03:53:20;11.50;99.90
20496;DHT22;10406;54.132;17.968;2022-09-01T03:58:43;11.50;99.90
20496;DHT22;10406;54.132;17.968;2022-09-01T04:04:05;11.70;99.90
20496;DHT22;10406;54.132;17.968;2022-09-01T04:09:31;11.70;99.90
20496;DHT22;10406;54.132;17.968;2022-09-01T04:15:13;11.70;99.90
20496;DHT22;10406;54.132;17.968;2022-09-01T04:20:57;11.60;99.90
20496;DHT22;10406;54.132;17.968;2022-09-01T04:26:27;11.70;99.90
20496;DHT22;10406;54.132;17.968;2022-09-01T04:31:49;11.80;99.90
20496;DHT22;10406;54.132;17.968;2022-09-01T04:37:12;11.90;99.90
20496;DHT22;10406;54.132;17.968;2022-09-01T04:42:34;12.00;99.90
20496;DHT22;10406;54.132;17.968;2022-09-01T04:47:55;11.90;99.90
20496;DHT22;10406;54.132;17.968;2022-09-01T04:53:18;12.00;99.90
20496;DHT22;10406;54.132;17.968;2022-09-01T04:58:40;12.10;99.90
20496;DHT22;10406;54.132;17.968;2022-09-01T05:04:06;12.20;99.90
20496;DHT22;10406;54.132;17.968;2022-09-01T05:09:29;12.20;99.90
20496;DHT22;10406;54.132;17.968;2022-09-01T05:14:51;12.30;99.90
20496;DHT22;10406;54.132;17.968;2022-09-01T05:20:15;12.30;99.90
20496;DHT22;10406;54.132;17.968;2022-09-01T05:25:59;12.40;99.90
20496;DHT22;10406;54.132;17.968;2022-09-01T05:31:34;12.50;99.90
20496;DHT22;10406;54.132;17.968;2022-09-01T05:36:58;12.70;99.90
20496;DHT22;10406;54.132;17.968;2022-09-01T05:42:20;12.80;99.90
20496;DHT22;10406;54.132;17.968;2022-09-01T05:48:00;13.00;99.90
20496;DHT22;10406;54.132;17.968;2022-09-01T05:53:22;13.10;99.90
20496;DHT22;10406;54.132;17.968;2022-09-01T05:58:56;13.30;99.90
20496;DHT22;10406;54.132;17.968;2022-09-01T06:04:42;13.40;99.90
20496;DHT22;10406;54.132;17.968;2022-09-01T06:10:26;13.60;99.90
20496;DHT22;10406;54.132;17.968;2022-09-01T06:15:49;13.70;99.90
20496;DHT22;10406;54.132;17.968;2022-09-01T06:21:13;14.00;99.90
20496;DHT22;10406;54.132;17.968;2022-09-01T06:26:41;14.10;99.90
20496;DHT22;10406;54.132;17.968;2022-09-01T06:32:24;14.30;99.90
20496;DHT22;10406;54.132;17.968;2022-09-01T06:37:48;14.30;99.90
20496;DHT22;10406;54.132;17.968;2022-09-01T06:43:09;14.70;99.90
20496;DHT22;10406;54.132;17.968;2022-09-01T06:48:30;14.60;99.90
20496;DHT22;10406;54.132;17.968;2022-09-01T06:53:53;14.70;99.90
20496;DHT22;10406;54.132;17.968;2022-09-01T06:59:29;14.60;99.90
20496;DHT22;10406;54.132;17.968;2022-09-01T07:05:12;14.40;99.90
20496;DHT22;10406;54.132;17.968;2022-09-01T07:10:42;14.40;99.90
20496;DHT22;10406;54.132;17.968;2022-09-01T07:16:08;14.40;99.90
20496;DHT22;10406;54.132;17.968;2022-09-01T07:21:30;14.50;99.90
20496;DHT22;10406;54.132;17.968;2022-09-01T07:26:55;14.70;99.90
20496;DHT22;10406;54.132;17.968;2022-09-01T07:32:15;15.10;99.90
20496;DHT22;10406;54.132;17.968;2022-09-01T07:37:36;16.10;99.90
20496;DHT22;10406;54.132;17.968;2022-09-01T07:42:59;16.30;99.90
20496;DHT22;10406;54.132;17.968;2022-09-01T07:48:21;16.70;99.90
20496;DHT22;10406;54.132;17.968;2022-09-01T07:53:42;16.90;99.90
20496;DHT22;10406;54.132;17.968;2022-09-01T07:59:04;17.10;99.90
20496;DHT22;10406;54.132;17.968;2022-09-01T08:04:26;17.50;99.90
20496;DHT22;10406;54.132;17.968;2022-09-01T08:09:47;17.70;99.90
20496;DHT22;10406;54.132;17.968;2022-09-01T08:15:16;18.00;99.90
20496;DHT22;10406;54.132;17.968;2022-09-01T08:20:42;17.60;99.90
20496;DHT22;10406;54.132;17.968;2022-09-01T08:26:05;17.50;99.90
20496;DHT22;10406;54.132;17.968;2022-09-01T08:31:28;17.50;99.90
20496;DHT22;10406;54.132;17.968;2022-09-01T08:36:49;17.70;99.90
20496;DHT22;10406;54.132;17.968;2022-09-01T08:42:17;17.70;99.90
20496;DHT22;10406;54.132;17.968;2022-09-01T08:47:40;17.60;99.90
20496;DHT22;10406;54.132;17.968;2022-09-01T08:53:06;18.00;99.90
20496;DHT22;10406;54.132;17.968;2022-09-01T08:58:45;18.10;99.90
20496;DHT22;10406;54.132;17.968;2022-09-01T09:04:25;18.40;99.90
20496;DHT22;10406;54.132;17.968;2022-09-01T09:09:57;18.20;99.90
20496;DHT22;10406;54.132;17.968;2022-09-01T09:15:26;17.50;99.90
20496;DHT22;10406;54.132;17.968;2022-09-01T09:21:09;17.10;99.90
20496;DHT22;10406;54.132;17.968;2022-09-01T09:26:33;17.30;99.90
20496;DHT22;10406;54.132;17.968;2022-09-01T09:32:04;17.90;99.90
20496;DHT22;10406;54.132;17.968;2022-09-01T09:37:28;17.90;99.90
20496;DHT22;10406;54.132;17.968;2022-09-01T09:43:03;17.80;99.90
20496;DHT22;10406;54.132;17.968;2022-09-01T09:48:27;17.80;99.90
20496;DHT22;10406;54.132;17.968;2022-09-01T09:54:09;17.30;99.90
20496;DHT22;10406;54.132;17.968;2022-09-01T09:59:35;17.40;99.90
20496;DHT22;10406;54.132;17.968;2022-09-01T10:05:10;17.40;99.90
20496;DHT22;10406;54.132;17.968;2022-09-01T10:10:47;17.50;99.90
20496;DHT22;10406;54.132;17.968;2022-09-01T10:16:17;18.20;99.90
20496;DHT22;10406;54.132;17.968;2022-09-01T10:22:07;18.20;99.90
20496;DHT22;10406;54.132;17.968;2022-09-01T10:27:34;17.90;99.90
20496;DHT22;10406;54.132;17.968;2022-09-01T10:32:57;17.80;99.90
20496;DHT22;10406;54.132;17.968;2022-09-01T10:38:21;17.80;99.90
20496;DHT22;10406;54.132;17.968;2022-09-01T10:43:48;17.70;99.90
20496;DHT22;10406;54.132;17.968;2022-09-01T10:55:24;18.60;99.90
20496;DHT22;10406;54.132;17.968;2022-09-01T11:00:56;18.80;99.90
20496;DHT22;10406;54.132;17.968;2022-09-01T11:06:43;18.60;99.90
20496;DHT22;10406;54.132;17.968;2022-09-01T11:12:39;18.50;99.90
20496;DHT22;10406;54.132;17.968;2022-09-01T11:18:14;18.30;99.90
20496;DHT22;10406;54.132;17.968;2022-09-01T11:23:35;17.70;99.90
20496;DHT22;10406;54.132;17.968;2022-09-01T11:35:01;17.60;99.90
20496;DHT22;10406;54.132;17.968;2022-09-01T11:40:26;18.00;99.90
20496;DHT22;10406;54.132;17.968;2022-09-01T11:45:55;18.20;99.90
20496;DHT22;10406;54.132;17.968;2022-09-01T11:51:20;18.30;99.90
20496;DHT22;10406;54.132;17.968;2022-09-01T11:56:41;18.30;99.90
20496;DHT22;10406;54.132;17.968;2022-09-01T12:02:22;18.70;99.90
20496;DHT22;10406;54.132;17.968;2022-09-01T12:07:46;18.90;99.90
20496;DHT22;10406;54.132;17.968;2022-09-01T12:13:26;18.70;99.90
20496;DHT22;10406;54.132;17.968;2022-09-01T12:18:50;18.50;99.90
20496;DHT22;10406;54.132;17.968;2022-09-01T12:24:18;18.40;99.90
20496;DHT22;10406;54.132;17.968;2022-09-01T12:29:41;18.60;99.90
20496;DHT22;10406;54.132;17.968;2022-09-01T12:35:22;18.80;99.90
20496;DHT22;10406;54.132;17.968;2022-09-01T12:40:52;18.60;99.90
20496;DHT22;10406;54.132;17.968;2022-09-01T12:46:41;18.60;99.90
20496;DHT22;10406;54.132;17.968;2022-09-01T12:52:24;19.00;99.90
20496;DHT22;10406;54.132;17.968;2022-09-01T12:57:49;19.60;99.90
20496;DHT22;10406;54.132;17.968;2022-09-01T13:03:13;19.70;99.90
20496;DHT22;10406;54.132;17.968;2022-09-01T13:08:54;19.50;99.90
20496;DHT22;10406;54.132;17.968;2022-09-01T13:14:21;18.90;99.90
20496;DHT22;10406;54.132;17.968;2022-09-01T13:19:44;18.30;99.90
20496;DHT22;10406;54.132;17.968;2022-09-01T13:25:15;18.00;99.90
20496;DHT22;10406;54.132;17.968;2022-09-01T13:30:49;17.80;99.90
20496;DHT22;10406;54.132;17.968;2022-09-01T13:36:17;17.50;99.90
20496;DHT22;10406;54.132;17.968;2022-09-01T13:41:40;17.60;99.90
20496;DHT22;10406;54.132;17.968;2022-09-01T13:47:05;17.90;99.90
20496;DHT22;10406;54.132;17.968;2022-09-01T13:53:04;18.20;99.60
20496;DHT22;10406;54.132;17.968;2022-09-01T13:58:31;18.40;98.20
20496;DHT22;10406;54.132;17.968;2022-09-01T14:04:03;18.50;96.70
20496;DHT22;10406;54.132;17.968;2022-09-01T14:09:24;18.50;98.20
20496;DHT22;10406;54.132;17.968;2022-09-01T14:14:45;18.70;97.60
20496;DHT22;10406;54.132;17.968;2022-09-01T14:20:12;19.00;95.60
20496;DHT22;10406;54.132;17.968;2022-09-01T14:25:43;19.30;94.60
20496;DHT22;10406;54.132;17.968;2022-09-01T14:31:07;19.20;94.60
20496;DHT22;10406;54.132;17.968;2022-09-01T14:36:30;19.30;95.50
20496;DHT22;10406;54.132;17.968;2022-09-01T14:42:08;19.20;95.00
20496;DHT22;10406;54.132;17.968;2022-09-01T14:47:37;19.10;95.80
20496;DHT22;10406;54.132;17.968;2022-09-01T14:53:01;18.80;97.50
20496;DHT22;10406;54.132;17.968;2022-09-01T14:58:33;18.40;99.70
20496;DHT22;10406;54.132;17.968;2022-09-01T15:03:54;17.90;99.90
20496;DHT22;10406;54.132;17.968;2022-09-01T15:09:17;17.40;99.90
20496;DHT22;10406;54.132;17.968;2022-09-01T15:14:44;17.30;99.90
20496;DHT22;10406;54.132;17.968;2022-09-01T15:20:08;17.40;99.90
20496;DHT22;10406;54.132;17.968;2022-09-01T15:25:51;17.40;99.90
20496;DHT22;10406;54.132;17.968;2022-09-01T15:31:16;17.40;99.90
20496;DHT22;10406;54.132;17.968;2022-09-01T15:36:39;18.80;99.90
20496;DHT22;10406;54.132;17.968;2022-09-01T15:42:01;20.60;92.90
20496;DHT22;10406;54.132;17.968;2022-09-01T15:47:43;19.50;93.20
20496;DHT22;10406;54.132;17.968;2022-09-01T15:53:18;17.90;98.80
20496;DHT22;10406;54.132;17.968;2022-09-01T15:58:40;17.20;99.90
20496;DHT22;10406;54.132;17.968;2022-09-01T16:04:02;16.90;99.90
20496;DHT22;10406;54.132;17.968;2022-09-01T16:09:27;16.70;99.90
20496;DHT22;10406;54.132;17.968;2022-09-01T16:14:49;16.50;99.90
20496;DHT22;10406;54.132;17.968;2022-09-01T16:20:20;16.50;99.90
20496;DHT22;10406;54.132;17.968;2022-09-01T16:25:51;16.50;99.90
20496;DHT22;10406;54.132;17.968;2022-09-01T16:31:24;16.70;99.90
20496;DHT22;10406;54.132;17.968;2022-09-01T16:36:54;16.60;99.90
20496;DHT22;10406;54.132;17.968;2022-09-01T16:42:37;16.40;99.90
20496;DHT22;10406;54.132;17.968;2022-09-01T16:48:09;16.20;99.90
20496;DHT22;10406;54.132;17.968;2022-09-01T16:53:58;16.10;99.90
20496;DHT22;10406;54.132;17.968;2022-09-01T16:59:31;15.80;99.90
20496;DHT22;10406;54.132;17.968;2022-09-01T17:05:06;15.70;99.90
20496;DHT22;10406;54.132;17.968;2022-09-01T17:10:45;15.50;99.90
20496;DHT22;10406;54.132;17.968;2022-09-01T17:16:15;15.30;99.90
20496;DHT22;10406;54.132;17.968;2022-09-01T17:21:54;15.10;99.90
20496;DHT22;10406;54.132;17.968;2022-09-01T17:27:42;14.80;99.90
20496;DHT22;10406;54.132;17.968;2022-09-01T17:33:22;14.50;99.90
20496;DHT22;10406;54.132;17.968;2022-09-01T17:38:55;14.20;99.90
20496;DHT22;10406;54.132;17.968;2022-09-01T17:44:25;13.90;99.90
20496;DHT22;10406;54.132;17.968;2022-09-01T17:49:57;13.60;99.90
20496;DHT22;10406;54.132;17.968;2022-09-01T17:55:52;13.40;99.90
20496;DHT22;10406;54.132;17.968;2022-09-01T18:01:25;13.10;99.90
20496;DHT22;10406;54.132;17.968;2022-09-01T18:07:11;12.90;99.90
20496;DHT22;10406;54.132;17.968;2022-09-01T18:12:38;12.70;99.90
20496;DHT22;10406;54.132;17.968;2022-09-01T18:18:16;12.50;99.90
20496;DHT22;10406;54.132;17.968;2022-09-01T18:24:05;12.30;99.90
20496;DHT22;10406;54.132;17.968;2022-09-01T18:30:21;12.20;99.90
20496;DHT22;10406;54.132;17.968;2022-09-01T18:35:59;12.00;99.90
20496;DHT22;10406;54.132;17.968;2022-09-01T18:41:51;12.30;99.90
20496;DHT22;10406;54.132;17.968;2022-09-01T18:47:22;12.10;99.90
20496;DHT22;10406;54.132;17.968;2022-09-01T18:53:03;12.00;99.90
20496;DHT22;10406;54.132;17.968;2022-09-01T18:58:38;11.80;99.90
20496;DHT22;10406;54.132;17.968;2022-09-01T19:04:15;11.70;99.90
20496;DHT22;10406;54.132;17.968;2022-09-01T19:09:52;11.60;99.90
20496;DHT22;10406;54.132;17.968;2022-09-01T19:21:08;11.20;99.90
20496;DHT22;10406;54.132;17.968;2022-09-01T19:26:49;11.10;99.90
20496;DHT22;10406;54.132;17.968;2022-09-01T19:32:16;11.00;99.90
20496;DHT22;10406;54.132;17.968;2022-09-01T19:37:40;10.80;99.90
20496;DHT22;10406;54.132;17.968;2022-09-01T19:43:13;10.80;99.90
20496;DHT22;10406;54.132;17.968;2022-09-01T19:48:46;10.70;99.90
20496;DHT22;10406;54.132;17.968;2022-09-01T19:54:12;10.60;99.90
20496;DHT22;10406;54.132;17.968;2022-09-01T19:59:46;10.60;99.90
20496;DHT22;10406;54.132;17.968;2022-09-01T20:05:32;10.60;99.90
20496;DHT22;10406;54.132;17.968;2022-09-01T20:10:59;10.60;99.90
20496;DHT22;10406;54.132;17.968;2022-09-01T20:16:26;10.50;99.90
20496;DHT22;10406;54.132;17.968;2022-09-01T20:27:56;10.50;99.90
20496;DHT22;10406;54.132;17.968;2022-09-01T20:33:23;10.30;99.90
20496;DHT22;10406;54.132;17.968;2022-09-01T20:38:50;10.10;99.90
20496;DHT22;10406;54.132;17.968;2022-09-01T20:44:53;10.10;99.90
20496;DHT22;10406;54.132;17.968;2022-09-01T20:50:18;9.90;99.90
20496;DHT22;10406;54.132;17.968;2022-09-01T20:55:43;9.70;99.90
20496;DHT22;10406;54.132;17.968;2022-09-01T21:01:15;9.50;99.90
20496;DHT22;10406;54.132;17.968;2022-09-01T21:06:53;9.50;99.90
20496;DHT22;10406;54.132;17.968;2022-09-01T21:12:26;9.40;99.90
20496;DHT22;10406;54.132;17.968;2022-09-01T21:18:27;9.60;99.90
20496;DHT22;10406;54.132;17.968;2022-09-01T21:23:51;9.60;99.90
20496;DHT22;10406;54.132;17.968;2022-09-01T21:29:46;9.60;99.90
20496;DHT22;10406;54.132;17.968;2022-09-01T21:35:48;9.60;99.90
20496;DHT22;10406;54.132;17.968;2022-09-01T21:41:09;9.70;99.90
20496;DHT22;10406;54.132;17.968;2022-09-01T21:46:30;9.60;99.90
20496;DHT22;10406;54.132;17.968;2022-09-01T21:52:08;9.50;99.90
20496;DHT22;10406;54.132;17.968;2022-09-01T21:57:37;9.40;99.90
20496;DHT22;10406;54.132;17.968;2022-09-01T22:03:19;9.20;99.90
20496;DHT22;10406;54.132;17.968;2022-09-01T22:09:23;9.10;99.90
20496;DHT22;10406;54.132;17.968;2022-09-01T22:15:24;8.80;99.90
20496;DHT22;10406;54.132;17.968;2022-09-01T22:20:46;9.00;99.90
20496;DHT22;10406;54.132;17.968;2022-09-01T22:26:29;9.10;99.90
20496;DHT22;10406;54.132;17.968;2022-09-01T22:31:50;9.10;99.90
20496;DHT22;10406;54.132;17.968;2022-09-01T22:37:28;9.10;99.90
20496;DHT22;10406;54.132;17.968;2022-09-01T22:42:53;8.90;99.90
20496;DHT22;10406;54.132;17.968;2022-09-01T22:48:18;8.80;99.90
20496;DHT22;10406;54.132;17.968;2022-09-01T22:53:41;8.70;99.90
20496;DHT22;10406;54.132;17.968;2022-09-01T22:59:06;8.60;99.90
20496;DHT22;10406;54.132;17.968;2022-09-01T23:04:30;8.70;99.90
20496;DHT22;10406;54.132;17.968;2022-09-01T23:09:52;8.70;99.90
20496;DHT22;10406;54.132;17.968;2022-09-01T23:15:22;8.70;99.90
20496;DHT22;10406;54.132;17.968;2022-09-01T23:20:43;8.60;99.90
20496;DHT22;10406;54.132;17.968;2022-09-01T23:26:06;8.70;99.90
20496;DHT22;10406;54.132;17.968;2022-09-01T23:31:32;8.70;99.90
20496;DHT22;10406;54.132;17.968;2022-09-01T23:37:08;8.50;99.90
20496;DHT22;10406;54.132;17.968;2022-09-01T23:42:34;8.60;99.90
20496;DHT22;10406;54.132;17.968;2022-09-01T23:48:05;10.40;99.90
20496;DHT22;10406;54.132;17.968;2022-09-01T23:53:40;8.30;99.90
20496;DHT22;10406;54.132;17.968;2022-09-01T23:59:32;8.00;99.90
